createdAt,value
2018-07-10T00:00:31.187Z,50.89
2018-07-10T00:04:46.283Z,50.68
2018-07-10T00:08:03.463Z,50.39
2018-07-10T00:11:18.192Z,50.10
2018-07-10T00:14:21.455Z,50.46
2018-07-10T00:17:24.671Z,50.96
2018-07-10T00:20:27.908Z,50.32
2018-07-10T00:23:31.111Z,50.89
2018-07-10T00:26:34.344Z,51.24
2018-07-10T00:29:37.500Z,51.20
2018-07-10T00:32:40.752Z,51.30
2018-07-10T00:35:43.972Z,51.27
2018-07-10T00:39:02.402Z,51.09
2018-07-10T00:42:05.571Z,51.61
2018-07-10T00:45:08.881Z,52.20
2018-07-10T00:48:12.087Z,52.81
2018-07-10T00:51:15.317Z,51.68
2018-07-10T00:54:18.616Z,51.49
2018-07-10T00:57:21.835Z,50.74
2018-07-10T01:00:32.730Z,51.01
2018-07-10T01:03:35.914Z,51.12
2018-07-10T01:06:39.106Z,52.41
2018-07-10T01:09:42.321Z,52.33
2018-07-10T01:12:45.525Z,52.52
2018-07-10T01:15:48.715Z,52.58
2018-07-10T01:18:54.648Z,52.35
2018-07-10T01:21:57.789Z,51.63
2018-07-10T01:25:00.941Z,52.30
2018-07-10T01:28:04.242Z,51.67
2018-07-10T01:31:07.430Z,51.82
2018-07-10T01:34:16.508Z,51.93
2018-07-10T01:37:19.848Z,51.45
2018-07-10T01:40:23.111Z,52.08
2018-07-10T01:43:26.340Z,52.20
2018-07-10T01:46:29.489Z,51.95
2018-07-10T01:49:32.673Z,52.07
2018-07-10T01:52:35.841Z,52.43
2018-07-10T01:55:39.061Z,52.84
2018-07-10T01:58:42.296Z,52.77
2018-07-10T02:01:45.508Z,52.89
2018-07-10T02:04:48.737Z,54.23
2018-07-10T02:07:51.972Z,53.73
2018-07-10T02:10:55.130Z,53.47
2018-07-10T02:13:58.334Z,53.45
2018-07-10T02:17:01.423Z,54.29
2018-07-10T02:20:04.590Z,53.67
2018-07-10T02:23:07.768Z,53.38
2018-07-10T02:26:23.259Z,53.61
2018-07-10T02:29:26.412Z,53.75
2018-07-10T02:32:29.565Z,52.72
2018-07-10T02:35:32.732Z,53.37
2018-07-10T02:38:40.355Z,54.75
2018-07-10T02:41:43.709Z,55.07
2018-07-10T02:44:46.853Z,55.54
2018-07-10T02:47:50.310Z,55.90
2018-07-10T02:50:53.975Z,55.75
2018-07-10T02:53:57.141Z,55.89
2018-07-10T02:57:00.295Z,55.93
2018-07-10T03:00:03.571Z,56.63
2018-07-10T03:03:06.718Z,56.51
2018-07-10T03:06:09.859Z,56.86
2018-07-10T03:09:13.697Z,56.31
2018-07-10T03:12:17.172Z,57.21
2018-07-10T03:15:20.318Z,56.46
2018-07-10T03:18:23.506Z,56.36
2018-07-10T03:21:26.712Z,56.10
2018-07-10T03:24:30.227Z,55.62
2018-07-10T03:27:33.865Z,55.94
2018-07-10T03:30:37.051Z,55.77
2018-07-10T03:33:40.240Z,55.77
2018-07-10T03:36:43.431Z,56.38
2018-07-10T03:39:47.199Z,56.98
2018-07-10T03:42:51.244Z,56.44
2018-07-10T03:45:57.032Z,55.51
2018-07-10T03:49:00.397Z,55.84
2018-07-10T03:52:04.075Z,55.96
2018-07-10T03:55:11.789Z,56.51
2018-07-10T03:58:14.994Z,57.18
2018-07-10T04:01:18.266Z,56.93
2018-07-10T04:04:21.545Z,57.13
2018-07-10T04:07:26.122Z,58.37
2018-07-10T04:10:32.535Z,58.64
2018-07-10T04:13:37.094Z,57.81
2018-07-10T04:16:40.434Z,59.88
2018-07-10T04:19:44.130Z,59.56
2018-07-10T04:22:53.864Z,59.19
2018-07-10T04:25:57.820Z,58.63
2018-07-10T04:29:09.983Z,59.20
2018-07-10T04:32:14.204Z,59.36
2018-07-10T04:35:20.371Z,58.22
2018-07-10T04:38:26.638Z,58.38
2018-07-10T04:41:31.444Z,58.34
2018-07-10T04:44:34.731Z,59.06
2018-07-10T04:47:46.123Z,58.52
2018-07-10T04:50:52.306Z,58.84
2018-07-10T04:54:13.218Z,59.53
2018-07-10T04:57:22.064Z,59.11
2018-07-10T05:00:26.087Z,59.10
2018-07-10T05:03:30.233Z,58.88
2018-07-10T05:06:35.395Z,59.21
2018-07-10T05:09:39.720Z,59.87
2018-07-10T05:12:44.876Z,60.28
2018-07-10T05:15:52.777Z,59.41
2018-07-10T05:18:59.206Z,58.71
2018-07-10T05:22:02.545Z,58.95
